Time;durP1;ratioP1;P1;durP2;ratioP2;P2;SDS_P1;SDS_P2;PMS_P1;PMS_P2;Temp;Humidity;BMP_temperature;BMP_pressure;BME280_temperature;BME280_humidity;BME280_pressure;Samples;Min_cycle;Max_cycle;Signal;HPM_P1;HPM_P2
2022/10/07 00:01:04;;;;;;;6.90;2.30;;;13.10;99.90;;;;;;5057991;28;20597;-67
2022/10/07 00:03:34;;;;;;;4.30;2.50;;;13.10;99.90;;;;;;5063399;28;21161;-67
2022/10/07 00:06:05;;;;;;;7.40;2.70;;;12.90;99.90;;;;;;5061563;28;20619;-67
2022/10/07 00:08:34;;;;;;;11.57;2.50;;;12.70;99.90;;;;;;5052658;28;20618;-67
2022/10/07 00:11:08;;;;;;;2.75;2.20;;;12.70;99.90;;;;;;5054364;28;20637;-67
2022/10/07 00:13:39;;;;;;;6.97;2.65;;;12.70;99.90;;;;;;5064426;28;20199;-67
2022/10/07 00:16:09;;;;;;;8.67;2.50;;;12.70;99.90;;;;;;5071463;28;20643;-67
2022/10/07 00:18:40;;;;;;;6.47;2.13;;;12.80;99.90;;;;;;5072003;28;20600;-67
2022/10/07 00:21:10;;;;;;;3.90;2.00;;;12.80;99.90;;;;;;5054695;28;20574;-67
2022/10/07 00:23:38;;;;;;;5.77;2.40;;;12.70;99.90;;;;;;5065097;28;20577;-66
2022/10/07 00:26:09;;;;;;;2.97;1.92;;;12.70;99.90;;;;;;5053165;28;20591;-66
2022/10/07 00:28:37;;;;;;;3.70;1.50;;;12.70;99.90;;;;;;5060380;28;20203;-66
2022/10/07 00:31:08;;;;;;;4.40;2.22;;;12.70;99.90;;;;;;5071071;28;20980;-66
2022/10/07 00:33:39;;;;;;;4.38;1.98;;;12.70;99.90;;;;;;5061174;28;20204;-66
2022/10/07 00:36:08;;;;;;;5.13;2.40;;;12.60;99.90;;;;;;5053068;28;20191;-66
2022/10/07 00:38:36;;;;;;;8.90;2.10;;;12.60;99.90;;;;;;5052751;28;20200;-66
2022/10/07 00:41:04;;;;;;;6.13;2.33;;;12.50;99.90;;;;;;5062728;28;20663;-66
2022/10/07 00:43:33;;;;;;;6.18;2.50;;;12.50;99.90;;;;;;5072420;28;20610;-66
2022/10/07 00:46:07;;;;;;;3.65;1.80;;;12.50;99.90;;;;;;5071526;28;20208;-66
2022/10/07 00:48:38;;;;;;;2.85;1.95;;;12.50;99.90;;;;;;5072568;28;20643;-66
2022/10/07 00:51:08;;;;;;;4.97;2.70;;;12.50;99.90;;;;;;5072002;28;20288;-66
2022/10/07 00:53:41;;;;;;;4.10;2.17;;;12.60;99.90;;;;;;5072617;28;20200;-66
2022/10/07 00:56:09;;;;;;;5.55;2.10;;;12.60;99.90;;;;;;5070927;28;20223;-66
2022/10/07 00:58:39;;;;;;;7.45;2.15;;;12.50;99.90;;;;;;5072305;28;20202;-66
2022/10/07 01:01:08;;;;;;;4.72;1.90;;;12.50;99.90;;;;;;5061841;28;20193;-66
2022/10/07 01:03:38;;;;;;;5.40;2.47;;;12.50;99.90;;;;;;5061087;28;20592;-66
2022/10/07 01:06:06;;;;;;;5.95;2.33;;;12.50;99.90;;;;;;5064017;28;20196;-66
2022/10/07 01:08:34;;;;;;;2.65;2.10;;;12.40;99.90;;;;;;5063864;28;20207;-66
2022/10/07 01:11:16;;;;;;;2.17;1.98;;;12.40;99.90;;;;;;5051816;28;20262;-67
2022/10/07 01:13:58;;;;;;;5.57;2.65;;;12.50;99.90;;;;;;5053151;28;20195;-67
2022/10/07 01:16:36;;;;;;;8.35;2.45;;;12.50;99.90;;;;;;5053068;28;20192;-66
2022/10/07 01:19:19;;;;;;;4.55;1.95;;;12.40;99.90;;;;;;5068067;28;20206;-66
2022/10/07 01:22:14;;;;;;;2.17;2.00;;;12.40;99.90;;;;;;5069314;28;20187;-66
2022/10/07 01:24:48;;;;;;;4.60;2.40;;;12.40;99.90;;;;;;5065496;28;20222;-66
2022/10/07 01:27:21;;;;;;;8.88;2.50;;;12.50;99.90;;;;;;5070941;28;20550;-66
2022/10/07 01:29:54;;;;;;;7.30;2.40;;;12.40;99.90;;;;;;5066520;28;20201;-66
2022/10/07 01:32:31;;;;;;;6.15;2.55;;;12.40;99.90;;;;;;5060199;28;20994;-66
2022/10/07 01:35:04;;;;;;;5.00;2.70;;;12.30;99.90;;;;;;5063660;28;20569;-67
2022/10/07 01:37:39;;;;;;;2.42;2.10;;;12.20;99.90;;;;;;5051865;28;20196;-66
2022/10/07 01:40:12;;;;;;;3.70;1.90;;;12.20;99.90;;;;;;5050389;28;20185;-66
2022/10/07 01:42:41;;;;;;;5.35;2.50;;;12.20;99.90;;;;;;5051322;28;20222;-66
2022/10/07 01:45:13;;;;;;;4.70;2.05;;;12.10;99.90;;;;;;5050172;28;20611;-67
2022/10/07 01:47:41;;;;;;;2.22;2.03;;;12.10;99.90;;;;;;5053592;28;20216;-67
2022/10/07 01:50:20;;;;;;;8.82;2.67;;;12.00;99.90;;;;;;5050497;28;20887;-67
2022/10/07 01:52:59;;;;;;;8.25;2.55;;;12.00;99.90;;;;;;5050048;28;20205;-67
2022/10/07 01:55:42;;;;;;;6.53;1.65;;;11.90;99.90;;;;;;5050300;28;20192;-67
2022/10/07 01:58:36;;;;;;;5.78;2.80;;;11.80;99.90;;;;;;5059104;28;20232;-67
2022/10/07 02:01:14;;;;;;;4.85;2.70;;;11.70;99.90;;;;;;5050044;28;20554;-67
2022/10/07 02:04:08;;;;;;;4.20;1.88;;;11.60;99.90;;;;;;5033627;28;20196;-67
2022/10/07 02:06:45;;;;;;;3.95;2.45;;;11.50;99.90;;;;;;5051004;28;20728;-66
2022/10/07 02:09:23;;;;;;;3.03;2.13;;;11.50;99.90;;;;;;5068359;28;20201;-67
2022/10/07 02:12:00;;;;;;;11.13;2.22;;;11.50;99.90;;;;;;5071710;28;20235;-67
2022/10/07 02:14:38;;;;;;;6.88;2.38;;;11.50;99.90;;;;;;5063516;28;20196;-67
2022/10/07 02:17:13;;;;;;;6.70;2.50;;;11.50;99.90;;;;;;5067390;28;20221;-68
2022/10/07 02:19:48;;;;;;;7.30;2.58;;;11.50;99.90;;;;;;5044692;28;20215;-68
2022/10/07 02:22:18;;;;;;;5.45;2.80;;;11.50;99.90;;;;;;5051060;28;20647;-68
2022/10/07 02:24:48;;;;;;;8.38;3.75;;;11.50;99.90;;;;;;5049671;28;20201;-68
2022/10/07 02:27:21;;;;;;;5.10;3.00;;;11.40;99.90;;;;;;5059252;28;20640;-68
2022/10/07 02:29:56;;;;;;;5.32;2.60;;;11.40;99.90;;;;;;5050335;28;20753;-68
2022/10/07 02:32:27;;;;;;;6.22;2.50;;;11.40;99.90;;;;;;5049939;28;20262;-68
2022/10/07 02:35:16;;;;;;;5.43;2.25;;;11.40;99.90;;;;;;5052596;28;20185;-68
2022/10/07 02:37:46;;;;;;;7.88;3.05;;;11.30;99.90;;;;;;5068859;28;20188;-68
2022/10/07 02:40:14;;;;;;;8.13;2.42;;;11.20;99.90;;;;;;5070014;28;20670;-68
2022/10/07 02:42:52;;;;;;;6.90;3.40;;;11.20;99.90;;;;;;5069431;28;20200;-68
2022/10/07 02:45:28;;;;;;;5.35;2.67;;;11.10;99.90;;;;;;5071178;28;20188;-68
2022/10/07 02:48:00;;;;;;;9.43;2.33;;;11.00;99.90;;;;;;5063158;28;20185;-68
2022/10/07 02:50:36;;;;;;;4.70;2.15;;;10.90;99.90;;;;;;5050050;28;20695;-68
2022/10/07 02:53:06;;;;;;;5.90;2.15;;;10.90;99.90;;;;;;5064449;28;20233;-68
2022/10/07 02:55:35;;;;;;;5.72;2.50;;;10.80;99.90;;;;;;5045604;28;20205;-68
2022/10/07 02:58:10;;;;;;;5.18;1.98;;;10.70;99.90;;;;;;5051085;28;20231;-68
2022/10/07 03:00:46;;;;;;;3.47;2.13;;;10.70;99.90;;;;;;5054347;28;20203;-68
2022/10/07 03:03:15;;;;;;;4.90;2.15;;;10.60;99.90;;;;;;5062733;28;20666;-68
2022/10/07 03:05:50;;;;;;;11.73;2.53;;;10.50;99.90;;;;;;5053423;28;20215;-68
2022/10/07 03:08:21;;;;;;;7.35;2.95;;;10.40;99.90;;;;;;5053404;28;20204;-68
2022/10/07 03:10:50;;;;;;;4.10;2.75;;;10.40;99.90;;;;;;5052709;28;20212;-67
2022/10/07 03:13:23;;;;;;;2.47;2.08;;;10.30;99.90;;;;;;5049439;28;20216;-67
2022/10/07 03:15:56;;;;;;;7.07;2.50;;;10.20;99.90;;;;;;5055955;28;20192;-68
2022/10/07 03:18:28;;;;;;;6.68;2.70;;;10.20;99.90;;;;;;5068401;28;20192;-68
2022/10/07 03:21:15;;;;;;;9.90;2.67;;;10.10;99.90;;;;;;5072087;28;20192;-68
2022/10/07 03:23:43;;;;;;;6.43;2.55;;;10.10;99.90;;;;;;5068411;28;20188;-68
2022/10/07 03:26:13;;;;;;;6.95;2.17;;;10.10;99.90;;;;;;5055503;28;20247;-68
2022/10/07 03:28:41;;;;;;;4.45;2.00;;;10.10;99.90;;;;;;5053260;28;20197;-68
2022/10/07 03:31:14;;;;;;;4.38;2.00;;;10.10;99.90;;;;;;5054389;28;20201;-68
2022/10/07 03:33:47;;;;;;;6.68;1.88;;;10.10;99.90;;;;;;5056644;28;20801;-68
2022/10/07 03:36:15;;;;;;;4.93;2.15;;;10.00;99.90;;;;;;5057347;28;20196;-68
2022/10/07 03:38:46;;;;;;;3.55;1.83;;;10.10;99.90;;;;;;5054663;28;20204;-68
2022/10/07 03:41:15;;;;;;;5.65;3.20;;;10.10;99.90;;;;;;5054369;28;20205;-68
2022/10/07 03:43:43;;;;;;;6.50;1.65;;;10.10;99.90;;;;;;5054390;28;20211;-68
2022/10/07 03:46:15;;;;;;;7.45;2.00;;;10.10;99.90;;;;;;5063006;28;20246;-68
2022/10/07 03:48:45;;;;;;;4.40;1.80;;;10.10;99.90;;;;;;5072328;28;20192;-68
2022/10/07 03:51:13;;;;;;;4.90;1.80;;;10.10;99.90;;;;;;5057394;28;20250;-67
2022/10/07 03:53:42;;;;;;;3.75;1.50;;;10.10;99.90;;;;;;5054166;28;20234;-68
2022/10/07 03:56:10;;;;;;;9.18;2.25;;;10.10;99.90;;;;;;5060995;28;20219;-68
2022/10/07 03:58:39;;;;;;;7.38;2.13;;;10.20;99.90;;;;;;5072822;28;20207;-68
2022/10/07 04:01:16;;;;;;;8.68;2.80;;;10.30;99.90;;;;;;5062267;28;20206;-68
2022/10/07 04:03:55;;;;;;;9.02;4.20;;;10.20;99.90;;;;;;5053403;28;20246;-68
2022/10/07 04:06:24;;;;;;;8.45;2.70;;;10.30;99.90;;;;;;5065616;28;20197;-68
2022/10/07 04:08:54;;;;;;;8.73;2.30;;;10.30;99.90;;;;;;5063263;28;20207;-68
2022/10/07 04:11:23;;;;;;;4.97;2.15;;;10.30;99.90;;;;;;5060180;28;20204;-68
2022/10/07 04:13:54;;;;;;;2.65;2.00;;;10.30;99.90;;;;;;5068688;28;20697;-68
2022/10/07 04:16:26;;;;;;;11.23;2.45;;;10.10;99.90;;;;;;5073664;28;20548;-68
2022/10/07 04:18:56;;;;;;;7.13;2.97;;;10.10;99.90;;;;;;5065437;28;20200;-68
2022/10/07 04:21:25;;;;;;;3.33;2.40;;;10.00;99.90;;;;;;5060209;28;20222;-68
2022/10/07 04:23:53;;;;;;;2.15;1.77;;;10.00;99.90;;;;;;5060391;28;20666;-68
2022/10/07 04:26:21;;;;;;;5.07;2.38;;;10.00;99.90;;;;;;5073607;28;20211;-68
2022/10/07 04:28:50;;;;;;;4.45;2.63;;;10.00;99.90;;;;;;5068612;28;20204;-68
2022/10/07 04:31:21;;;;;;;3.03;2.75;;;10.00;99.90;;;;;;5071071;28;20187;-68
2022/10/07 04:33:56;;;;;;;5.82;2.67;;;10.00;99.90;;;;;;5053684;28;20204;-68
2022/10/07 04:36:29;;;;;;;7.60;2.60;;;10.00;99.90;;;;;;5063952;28;20669;-68
2022/10/07 04:39:03;;;;;;;4.72;2.38;;;9.90;99.90;;;;;;5063422;28;20211;-67
2022/10/07 04:41:35;;;;;;;6.57;2.20;;;9.90;99.90;;;;;;5067632;28;20258;-67
2022/10/07 04:44:06;;;;;;;3.15;2.45;;;9.90;99.90;;;;;;5059111;28;20195;-67
2022/10/07 04:46:39;;;;;;;8.15;2.33;;;9.90;99.90;;;;;;5058701;28;20249;-67
2022/10/07 04:49:13;;;;;;;4.85;2.92;;;9.80;99.90;;;;;;5051400;28;20543;-67
2022/10/07 04:51:41;;;;;;;7.93;3.00;;;9.80;99.90;;;;;;5052704;28;20598;-67
2022/10/07 04:54:10;;;;;;;4.93;2.53;;;9.70;99.90;;;;;;5051758;28;20220;-67
2022/10/07 04:56:49;;;;;;;4.65;2.70;;;9.70;99.90;;;;;;5066481;28;20265;-67
2022/10/07 04:59:19;;;;;;;13.10;2.60;;;9.70;99.90;;;;;;5059598;28;20539;-67
2022/10/07 05:01:48;;;;;;;10.75;3.03;;;9.50;99.90;;;;;;5054042;28;20197;-67
2022/10/07 05:04:18;;;;;;;5.90;2.55;;;9.50;99.90;;;;;;5058037;28;20249;-67
2022/10/07 05:06:47;;;;;;;6.07;2.67;;;9.50;99.90;;;;;;5058285;28;20196;-67
2022/10/07 05:09:16;;;;;;;18.73;2.92;;;9.50;99.90;;;;;;5036338;28;20227;-67
2022/10/07 05:11:47;;;;;;;4.95;2.30;;;9.50;99.90;;;;;;5071479;28;20188;-67
2022/10/07 05:14:20;;;;;;;11.65;4.55;;;9.60;99.90;;;;;;5057692;28;20599;-68
2022/10/07 05:16:49;;;;;;;3.58;2.53;;;9.60;99.90;;;;;;5065860;28;20306;-67
2022/10/07 05:19:18;;;;;;;20.45;3.28;;;9.60;99.90;;;;;;5058084;28;20204;-67
2022/10/07 05:21:46;;;;;;;7.55;2.72;;;9.70;99.90;;;;;;5059483;28;20200;-67
2022/10/07 05:24:15;;;;;;;5.60;2.50;;;9.60;99.90;;;;;;5059702;28;20674;-67
2022/10/07 05:26:44;;;;;;;10.00;3.75;;;9.70;99.90;;;;;;5060856;28;20203;-67
2022/10/07 05:29:12;;;;;;;2.78;2.53;;;9.60;99.90;;;;;;5056782;28;20566;-67
2022/10/07 05:31:47;;;;;;;11.80;3.13;;;9.50;99.90;;;;;;5053688;28;20204;-67
2022/10/07 05:34:19;;;;;;;8.32;2.70;;;9.50;99.90;;;;;;5050559;28;20212;-67
2022/10/07 05:36:47;;;;;;;6.47;2.75;;;9.50;99.90;;;;;;5051991;28;20219;-68
2022/10/07 05:39:15;;;;;;;5.00;2.50;;;9.50;99.90;;;;;;5057616;28;20207;-66
2022/10/07 05:41:50;;;;;;;7.38;2.50;;;9.60;99.90;;;;;;5067122;28;20519;-66
2022/10/07 05:44:22;;;;;;;3.70;2.10;;;9.50;99.90;;;;;;5069131;28;20229;-68
2022/10/07 05:46:52;;;;;;;12.85;3.88;;;9.50;99.90;;;;;;5061327;28;20200;-67
2022/10/07 05:49:22;;;;;;;7.25;2.47;;;9.50;99.90;;;;;;5055475;28;20200;-68
2022/10/07 05:51:50;;;;;;;10.93;2.50;;;9.50;99.90;;;;;;5054923;28;20651;-67
2022/10/07 05:54:19;;;;;;;7.75;2.67;;;9.50;99.90;;;;;;5058905;28;20220;-68
2022/10/07 05:56:48;;;;;;;6.95;2.90;;;9.50;99.90;;;;;;5061099;28;20212;-67
2022/10/07 05:59:23;;;;;;;7.78;2.67;;;9.40;99.90;;;;;;5045224;28;20192;-66
2022/10/07 06:01:56;;;;;;;13.18;2.75;;;9.40;99.90;;;;;;5063001;28;20258;-66
2022/10/07 06:04:25;;;;;;;8.23;3.50;;;9.40;99.90;;;;;;5057350;28;20197;-67
2022/10/07 06:06:54;;;;;;;6.13;1.88;;;9.40;99.90;;;;;;5050246;28;20542;-67
2022/10/07 06:15:01;;;;;;;6.05;2.70;;;9.50;99.90;;;;;;5062157;28;20220;-67
2022/10/07 06:17:29;;;;;;;4.35;2.72;;;9.40;99.90;;;;;;5061972;28;20208;-67
2022/10/07 06:20:01;;;;;;;9.77;4.55;;;9.40;99.90;;;;;;5042648;28;20215;-67
2022/10/07 06:22:29;;;;;;;10.63;3.13;;;9.40;99.90;;;;;;5059285;28;20604;-67
2022/10/07 06:24:59;;;;;;;7.97;3.38;;;9.30;99.90;;;;;;5060051;28;20237;-67
2022/10/07 06:27:27;;;;;;;8.95;2.88;;;9.40;99.90;;;;;;5058009;28;20193;-67
2022/10/07 06:29:56;;;;;;;4.82;2.50;;;9.50;99.90;;;;;;5059780;28;20287;-67
2022/10/07 06:32:24;;;;;;;8.25;3.03;;;9.50;99.90;;;;;;5054977;28;20208;-68
2022/10/07 06:34:52;;;;;;;8.48;3.08;;;9.40;99.90;;;;;;5064840;28;20227;-68
2022/10/07 06:37:22;;;;;;;5.45;2.08;;;9.40;99.90;;;;;;5069640;28;20197;-67
2022/10/07 06:39:50;;;;;;;10.45;2.40;;;9.40;99.90;;;;;;5058784;28;20204;-68
2022/10/07 06:42:18;;;;;;;11.23;2.70;;;9.40;99.90;;;;;;5062996;28;20211;-68
2022/10/07 06:45:08;;;;;;;10.13;4.07;;;9.40;99.90;;;;;;5066323;28;20204;-68
2022/10/07 06:47:37;;;;;;;7.75;2.95;;;9.50;99.90;;;;;;5069959;28;20203;-68
2022/10/07 06:50:06;;;;;;;7.47;3.35;;;9.60;99.90;;;;;;5069028;28;20246;-68
2022/10/07 06:52:35;;;;;;;4.10;2.50;;;9.70;99.90;;;;;;5070885;28;20206;-66
2022/10/07 06:55:04;;;;;;;11.70;3.60;;;9.70;99.90;;;;;;5065331;28;20223;-67
2022/10/07 06:57:34;;;;;;;8.70;3.70;;;9.80;99.90;;;;;;5068634;28;20237;-67
2022/10/07 07:00:03;;;;;;;6.53;3.30;;;9.70;99.90;;;;;;5064656;28;20270;-67
2022/10/07 07:02:33;;;;;;;6.55;3.50;;;9.70;99.90;;;;;;5075941;28;20598;-66
2022/10/07 07:05:03;;;;;;;15.23;3.28;;;9.80;99.90;;;;;;5061028;28;20430;-66
2022/10/07 07:07:31;;;;;;;7.75;3.30;;;9.80;99.90;;;;;;5065881;28;20205;-66
2022/10/07 07:10:03;;;;;;;5.32;3.05;;;9.80;99.90;;;;;;5061291;28;20720;-68
2022/10/07 07:12:33;;;;;;;12.35;3.38;;;9.90;99.90;;;;;;5073598;28;20544;-68
2022/10/07 07:15:00;;;;;;;5.90;2.85;;;10.00;99.90;;;;;;5078518;28;20223;-67
2022/10/07 07:17:28;;;;;;;11.27;3.10;;;10.00;99.90;;;;;;5058700;28;20218;-67
2022/10/07 07:19:56;;;;;;;8.77;3.75;;;10.10;99.90;;;;;;5072490;28;20600;-67
2022/10/07 07:22:25;;;;;;;10.82;3.13;;;10.10;99.90;;;;;;5074570;28;20204;-67
2022/10/07 07:24:53;;;;;;;7.78;3.20;;;10.10;99.90;;;;;;5073998;28;20200;-67
2022/10/07 07:27:22;;;;;;;8.52;4.55;;;10.20;99.90;;;;;;5056998;28;20230;-68
2022/10/07 07:29:50;;;;;;;12.77;3.65;;;10.30;99.90;;;;;;5072550;28;20211;-67
2022/10/07 07:32:18;;;;;;;6.55;3.60;;;10.50;99.90;;;;;;5066892;28;20201;-67
2022/10/07 07:34:46;;;;;;;5.45;3.33;;;10.70;99.90;;;;;;5061497;28;20224;-67
2022/10/07 07:37:19;;;;;;;9.65;3.78;;;10.70;99.90;;;;;;5067397;28;20196;-68
2022/10/07 07:39:51;;;;;;;10.25;2.78;;;10.70;99.90;;;;;;5080811;28;20180;-68
2022/10/07 07:42:20;;;;;;;8.60;3.13;;;10.90;99.90;;;;;;5064339;28;20660;-68
2022/10/07 07:44:50;;;;;;;10.40;3.58;;;11.00;99.90;;;;;;5065399;28;20204;-68
2022/10/07 07:47:19;;;;;;;4.57;3.20;;;11.00;99.90;;;;;;5065327;28;20184;-68
2022/10/07 07:49:49;;;;;;;6.70;3.33;;;11.10;99.90;;;;;;5070818;28;20196;-67
2022/10/07 07:52:24;;;;;;;8.43;3.85;;;11.20;99.90;;;;;;5063717;28;20192;-68
2022/10/07 07:54:57;;;;;;;12.88;3.13;;;11.40;99.90;;;;;;5063502;28;20217;-67
2022/10/07 07:57:25;;;;;;;10.90;4.75;;;11.60;99.90;;;;;;5050147;28;20224;-68
2022/10/07 07:59:55;;;;;;;10.85;3.63;;;11.70;99.90;;;;;;5052986;28;20235;-68
2022/10/07 08:02:23;;;;;;;13.80;3.88;;;11.90;99.90;;;;;;5036220;28;20216;-68
2022/10/07 08:04:52;;;;;;;13.05;4.10;;;12.10;99.90;;;;;;5052223;28;20217;-68
2022/10/07 08:07:20;;;;;;;6.40;3.40;;;12.20;99.90;;;;;;5051908;28;20670;-68
2022/10/07 08:09:50;;;;;;;9.38;3.50;;;12.20;99.90;;;;;;5063125;28;20197;-68
2022/10/07 08:12:19;;;;;;;8.95;3.92;;;12.30;99.90;;;;;;5052466;28;20204;-67
2022/10/07 08:14:49;;;;;;;6.13;3.45;;;12.40;99.90;;;;;;5052038;28;20228;-68
2022/10/07 08:17:19;;;;;;;11.43;4.00;;;12.60;99.90;;;;;;5052311;28;20212;-68
2022/10/07 08:19:47;;;;;;;6.57;3.55;;;12.80;99.90;;;;;;5051907;28;20211;-68
2022/10/07 08:22:16;;;;;;;6.47;3.38;;;12.70;99.90;;;;;;5052198;28;20415;-68
2022/10/07 08:24:46;;;;;;;6.00;2.83;;;12.90;99.90;;;;;;5053300;28;20189;-68
2022/10/07 08:27:15;;;;;;;6.43;3.33;;;13.00;99.90;;;;;;5052171;28;20224;-68
2022/10/07 08:29:43;;;;;;;13.27;4.35;;;13.30;99.90;;;;;;5051629;28;20277;-68
2022/10/07 08:32:12;;;;;;;10.83;5.40;;;13.30;99.90;;;;;;5052346;28;20200;-68
2022/10/07 08:34:41;;;;;;;16.83;9.73;;;13.40;99.90;;;;;;5052871;28;20633;-66
2022/10/07 08:37:09;;;;;;;7.67;4.53;;;13.40;99.90;;;;;;5053382;28;21013;-66
2022/10/07 08:39:37;;;;;;;12.10;3.57;;;13.40;99.90;;;;;;5053146;28;20632;-66
2022/10/07 08:42:12;;;;;;;5.60;3.37;;;13.40;99.90;;;;;;5053434;28;20593;-66
2022/10/07 08:44:41;;;;;;;8.23;3.53;;;13.20;99.90;;;;;;5051950;28;20988;-66
2022/10/07 08:47:21;;;;;;;23.13;12.80;;;13.00;99.90;;;;;;5053785;28;20626;-67
2022/10/07 08:49:59;;;;;;;8.70;3.77;;;13.00;99.90;;;;;;5052782;28;20599;-67
2022/10/07 08:52:46;;;;;;;8.87;3.63;;;13.10;99.90;;;;;;5057669;28;20601;-67
2022/10/07 08:55:18;;;;;;;8.70;3.47;;;13.10;99.90;;;;;;5073225;28;20605;-67
2022/10/07 08:58:04;;;;;;;8.47;3.63;;;13.20;99.90;;;;;;5072750;28;20630;-67
2022/10/07 09:00:40;;;;;;;14.43;3.70;;;13.40;99.90;;;;;;5063403;28;20589;-67
2022/10/07 09:03:20;;;;;;;9.60;3.73;;;13.60;99.90;;;;;;5055428;28;20577;-67
2022/10/07 09:05:50;;;;;;;4.67;3.40;;;13.80;99.90;;;;;;5052682;28;20653;-68
2022/10/07 09:08:26;;;;;;;7.00;3.70;;;14.00;99.90;;;;;;5052566;28;20607;-68
2022/10/07 09:10:58;;;;;;;11.37;3.40;;;14.10;99.90;;;;;;5060643;28;20625;-67
2022/10/07 09:13:30;;;;;;;9.93;3.77;;;14.20;99.90;;;;;;5072672;28;20615;-69
2022/10/07 09:16:14;;;;;;;7.43;3.60;;;14.30;99.90;;;;;;5070590;28;20973;-66
2022/10/07 09:18:49;;;;;;;15.30;4.53;;;14.40;99.90;;;;;;5057371;28;20574;-66
2022/10/07 09:21:22;;;;;;;7.90;4.50;;;14.30;99.90;;;;;;5052154;28;20586;-66
2022/10/07 09:23:55;;;;;;;6.57;3.10;;;14.60;99.90;;;;;;5052626;28;21112;-67
2022/10/07 09:26:25;;;;;;;7.97;3.80;;;14.70;99.90;;;;;;5054800;28;20587;-66
2022/10/07 09:28:53;;;;;;;9.97;3.00;;;14.70;99.90;;;;;;5062544;28;20573;-66
2022/10/07 09:31:23;;;;;;;10.50;3.53;;;14.70;99.90;;;;;;5062596;28;20945;-66
2022/10/07 09:33:53;;;;;;;10.73;3.37;;;14.60;99.90;;;;;;5069913;28;20574;-67
2022/10/07 09:36:23;;;;;;;7.40;3.87;;;14.70;99.90;;;;;;5061690;28;20644;-68
2022/10/07 09:38:53;;;;;;;8.97;4.00;;;15.00;99.90;;;;;;5073348;28;20682;-68
2022/10/07 09:41:29;;;;;;;8.07;3.60;;;15.10;99.90;;;;;;5072146;28;20621;-68
2022/10/07 09:44:04;;;;;;;11.67;4.30;;;15.40;99.90;;;;;;5072935;28;20577;-68
2022/10/07 09:46:47;;;;;;;6.00;2.80;;;15.40;99.90;;;;;;5071487;28;21112;-68
2022/10/07 09:49:40;;;;;;;8.93;3.80;;;15.50;99.90;;;;;;5067456;28;20596;-67
2022/10/07 09:52:16;;;;;;;5.07;3.27;;;15.70;99.90;;;;;;5059497;28;20990;-67
2022/10/07 09:54:52;;;;;;;8.27;3.63;;;15.80;99.90;;;;;;5051466;28;20606;-67
2022/10/07 09:57:31;;;;;;;5.40;3.10;;;16.00;99.90;;;;;;5055156;28;21197;-67
2022/10/07 10:00:26;;;;;;;6.27;3.00;;;16.10;99.90;;;;;;5060400;28;20599;-68
2022/10/07 10:03:03;;;;;;;9.30;3.77;;;16.00;99.90;;;;;;5049818;28;20574;-67
2022/10/07 10:05:33;;;;;;;12.27;4.10;;;16.00;99.90;;;;;;5051326;28;20570;-68
2022/10/07 10:08:05;;;;;;;10.67;4.50;;;16.10;99.90;;;;;;5051304;28;20576;-67
2022/10/07 10:10:36;;;;;;;9.53;3.60;;;16.30;99.90;;;;;;5051109;28;20977;-67
2022/10/07 10:13:06;;;;;;;12.33;3.47;;;16.20;99.90;;;;;;5049817;28;20581;-67
2022/10/07 10:15:40;;;;;;;6.37;3.73;;;16.50;99.90;;;;;;5051050;28;20656;-67
2022/10/07 10:18:48;;;;;;;12.30;4.37;;;16.70;99.90;;;;;;5050393;28;20574;-67
2022/10/07 10:21:28;;;;;;;10.33;4.97;;;16.60;99.90;;;;;;5008719;28;20568;-67
2022/10/07 10:23:59;;;;;;;8.00;3.80;;;16.50;99.90;;;;;;5009493;28;20600;-67
2022/10/07 10:26:56;;;;;;;7.40;4.40;;;16.80;99.90;;;;;;5035083;28;20688;-67
2022/10/07 10:29:41;;;;;;;6.90;3.43;;;16.80;99.90;;;;;;5050950;28;20610;-67
2022/10/07 10:32:44;;;;;;;10.03;4.20;;;16.80;99.90;;;;;;5051628;28;20557;-67
2022/10/07 10:35:19;;;;;;;9.30;3.30;;;16.80;99.90;;;;;;5049614;28;20611;-67
2022/10/07 10:38:09;;;;;;;5.47;3.73;;;17.10;99.90;;;;;;5051060;28;20930;-67
2022/10/07 10:40:41;;;;;;;10.30;3.40;;;16.90;99.90;;;;;;5049919;28;20581;-67
2022/10/07 10:43:22;;;;;;;7.20;3.53;;;16.90;99.90;;;;;;5050155;28;20612;-67
2022/10/07 10:46:09;;;;;;;11.47;3.50;;;17.30;99.90;;;;;;5050733;28;20972;-67
2022/10/07 10:48:43;;;;;;;13.47;3.87;;;17.70;99.90;;;;;;5051227;28;20573;-67
2022/10/07 10:51:30;;;;;;;5.33;3.13;;;17.80;99.90;;;;;;5050273;28;20678;-67
2022/10/07 10:54:13;;;;;;;9.97;3.97;;;18.20;99.90;;;;;;5059419;28;20602;-67
2022/10/07 10:56:50;;;;;;;8.20;3.90;;;18.10;99.90;;;;;;5069295;28;20659;-67
2022/10/07 10:59:36;;;;;;;6.53;3.47;;;17.70;99.90;;;;;;5070575;28;20610;-67
2022/10/07 11:02:28;;;;;;;11.03;4.40;;;17.60;99.90;;;;;;5061921;28;20626;-67
2022/10/07 11:05:00;;;;;;;9.90;3.30;;;17.90;99.90;;;;;;5059635;28;20615;-67
2022/10/07 11:07:32;;;;;;;8.47;4.90;;;18.00;99.90;;;;;;5068815;28;20610;-67
2022/10/07 11:10:04;;;;;;;8.43;3.77;;;18.20;99.90;;;;;;5068257;28;21172;-67
2022/10/07 11:12:39;;;;;;;7.43;3.40;;;18.20;99.90;;;;;;5063772;28;20637;-67
2022/10/07 11:15:15;;;;;;;10.63;4.30;;;18.90;99.90;;;;;;5058531;28;20634;-67
2022/10/07 11:17:46;;;;;;;6.37;3.43;;;19.20;99.90;;;;;;5051434;28;20648;-67
2022/10/07 11:20:20;;;;;;;4.87;3.50;;;19.10;99.90;;;;;;5051319;28;20614;-66
2022/10/07 11:22:55;;;;;;;5.83;4.13;;;18.70;99.90;;;;;;5061364;28;20629;-68
2022/10/07 11:25:29;;;;;;;8.60;4.77;;;19.00;99.90;;;;;;5054200;28;20644;-67
2022/10/07 11:28:07;;;;;;;6.83;4.53;;;19.10;99.90;;;;;;5051150;28;20594;-68
2022/10/07 11:30:42;;;;;;;8.87;3.80;;;19.20;99.90;;;;;;5058940;28;20613;-67
2022/10/07 11:33:19;;;;;;;8.40;3.93;;;19.30;99.90;;;;;;5055255;28;20609;-68
2022/10/07 11:35:51;;;;;;;10.90;3.60;;;20.00;99.90;;;;;;5048158;28;20959;-67
2022/10/07 11:38:24;;;;;;;7.80;3.90;;;20.00;99.90;;;;;;5057812;28;20606;-68
2022/10/07 11:40:55;;;;;;;6.20;4.40;;;20.70;99.90;;;;;;5060224;28;20614;-68
2022/10/07 11:43:27;;;;;;;12.53;4.53;;;20.90;99.90;;;;;;5061018;28;20609;-68
2022/10/07 11:46:00;;;;;;;7.80;3.70;;;21.10;99.90;;;;;;5061161;28;20611;-67
2022/10/07 11:48:34;;;;;;;5.13;4.00;;;21.00;99.90;;;;;;5063018;28;20610;-67
2022/10/07 11:51:05;;;;;;;6.73;4.43;;;21.30;99.90;;;;;;5064307;28;20658;-68
2022/10/07 11:53:38;;;;;;;7.70;4.80;;;21.30;99.90;;;;;;5065892;28;21175;-67
2022/10/07 11:56:15;;;;;;;9.50;4.07;;;21.20;99.90;;;;;;5062487;28;20680;-68
2022/10/07 11:58:47;;;;;;;5.60;3.93;;;21.40;99.90;;;;;;5063223;28;20619;-67
2022/10/07 12:01:43;;;;;;;6.23;3.53;;;22.30;99.90;;;;;;5059911;28;20699;-68
2022/10/07 12:04:41;;;;;;;6.87;4.20;;;22.00;99.90;;;;;;5061425;28;20622;-68
2022/10/07 12:07:40;;;;;;;5.57;3.80;;;21.50;99.90;;;;;;5061658;28;20714;-67
2022/10/07 12:10:20;;;;;;;6.47;3.67;;;22.80;99.90;;;;;;5040947;28;21012;-67
2022/10/07 12:12:51;;;;;;;5.90;3.90;;;22.80;99.90;;;;;;5066573;28;20626;-67
2022/10/07 12:15:42;;;;;;;6.20;4.23;;;22.60;99.90;;;;;;5057532;28;20611;-67
2022/10/07 12:18:28;;;;;;;7.07;4.50;;;22.90;99.90;;;;;;5066796;28;20668;-68
2022/10/07 12:21:07;;;;;;;6.80;4.63;;;22.40;99.90;;;;;;5066183;28;20621;-67
2022/10/07 12:23:43;;;;;;;5.07;4.60;;;23.40;99.90;;;;;;5070121;28;20877;-67
2022/10/07 12:26:52;;;;;;;4.23;3.90;;;22.70;99.90;;;;;;5061184;28;20595;-67
2022/10/07 12:29:27;;;;;;;10.40;4.07;;;22.50;99.90;;;;;;5058961;28;20618;-68
2022/10/07 12:31:58;;;;;;;8.57;4.40;;;23.20;99.90;;;;;;5052732;28;20629;-68
2022/10/07 12:34:38;;;;;;;11.60;4.73;;;23.10;99.90;;;;;;5059409;28;20640;-68
2022/10/07 12:37:43;;;;;;;5.43;4.40;;;24.00;99.90;;;;;;5067376;28;20643;-67
2022/10/07 12:40:22;;;;;;;8.87;4.60;;;23.40;99.90;;;;;;5073224;28;20637;-67
2022/10/07 12:43:10;;;;;;;4.90;4.00;;;23.10;99.90;;;;;;5070814;28;20649;-68
2022/10/07 12:45:42;;;;;;;13.77;4.60;;;22.80;99.90;;;;;;5066690;28;20622;-68
2022/10/07 12:48:16;;;;;;;6.60;4.43;;;22.00;99.90;;;;;;5065549;28;21029;-67
2022/10/07 12:50:47;;;;;;;5.97;4.33;;;22.00;99.90;;;;;;5068854;28;20653;-67
2022/10/07 12:53:16;;;;;;;7.40;4.60;;;23.00;99.90;;;;;;5063520;28;20626;-67
2022/10/07 12:55:49;;;;;;;10.23;4.17;;;23.10;99.90;;;;;;5062589;28;20631;-67
2022/10/07 13:01:53;;;;;;;5.53;4.97;;;23.10;99.90;;;;;;5063150;28;20614;-68
2022/10/07 13:04:49;;;;;;;8.87;4.80;;;21.50;99.90;;;;;;5069609;28;20621;-67
2022/10/07 13:07:55;;;;;;;7.00;4.13;;;21.60;99.90;;;;;;5051359;28;21244;-67
2022/10/07 13:10:36;;;;;;;4.20;3.80;;;21.90;99.90;;;;;;5067374;28;20626;-68
2022/10/07 13:13:07;;;;;;;5.87;3.87;;;22.10;99.90;;;;;;5073044;28;20582;-68
2022/10/07 13:15:41;;;;;;;4.43;3.93;;;22.70;99.90;;;;;;5061769;28;20641;-68
2022/10/07 13:18:18;;;;;;;6.00;5.50;;;22.20;99.90;;;;;;5053858;28;21292;-69
2022/10/07 13:21:06;;;;;;;4.00;3.60;;;22.00;99.90;;;;;;5069723;28;20610;-66
2022/10/07 13:23:36;;;;;;;5.17;3.67;;;22.80;99.90;;;;;;5062819;28;20941;-67
2022/10/07 13:26:05;;;;;;;10.57;4.70;;;23.00;99.90;;;;;;5050798;28;21025;-67
2022/10/07 13:28:43;;;;;;;8.07;4.20;;;22.80;99.90;;;;;;5052922;28;20627;-68
2022/10/07 13:31:18;;;;;;;7.17;4.00;;;23.70;99.90;;;;;;5053230;28;20625;-67